createdAt,value
2022-11-20T00:01:43.551Z,10.87
2022-11-20T00:04:13.440Z,11.13
2022-11-20T00:06:43.538Z,11.00
2022-11-20T00:09:13.621Z,11.63
2022-11-20T00:11:43.387Z,10.93
2022-11-20T00:14:13.170Z,11.03
2022-11-20T00:16:43.128Z,11.23
2022-11-20T00:19:12.884Z,11.10
2022-11-20T00:21:42.941Z,10.78
2022-11-20T00:24:12.856Z,11.48
2022-11-20T00:26:42.610Z,11.40
2022-11-20T00:29:12.581Z,12.03
2022-11-20T00:31:42.370Z,11.57
2022-11-20T00:34:12.372Z,11.93
2022-11-20T00:36:42.118Z,10.67
2022-11-20T00:39:11.968Z,10.00
2022-11-20T00:41:41.841Z,10.40
2022-11-20T00:44:11.722Z,10.57
2022-11-20T00:46:41.514Z,10.40
2022-11-20T00:49:11.267Z,11.03
2022-11-20T00:51:41.085Z,10.87
2022-11-20T00:54:11.863Z,11.06
2022-11-20T00:56:41.601Z,10.83
2022-11-20T00:59:12.710Z,11.30
2022-11-20T01:01:42.462Z,10.67
2022-11-20T01:04:11.940Z,11.10
2022-11-20T01:06:42.142Z,10.63
2022-11-20T01:09:16.061Z,11.33
2022-11-20T01:11:46.967Z,10.48
2022-11-20T01:14:19.593Z,11.43
2022-11-20T01:16:52.142Z,10.20
2022-11-20T01:19:25.076Z,10.67
2022-11-20T01:21:56.191Z,11.17
2022-11-20T01:24:25.786Z,10.70
2022-11-20T01:26:55.532Z,10.00
2022-11-20T01:29:26.863Z,11.10
2022-11-20T01:31:56.621Z,11.27
2022-11-20T01:34:26.430Z,10.20
2022-11-20T01:36:56.189Z,11.37
2022-11-20T01:39:27.937Z,10.30
2022-11-20T01:42:15.852Z,11.13
2022-11-20T01:44:57.362Z,9.93
2022-11-20T01:47:39.518Z,10.50
2022-11-20T01:50:16.682Z,10.88
2022-11-20T01:52:49.225Z,11.50
2022-11-20T01:55:27.598Z,10.47
2022-11-20T01:57:57.206Z,10.65
2022-11-20T02:00:26.794Z,11.28
2022-11-20T02:02:59.644Z,11.63
2022-11-20T02:05:35.305Z,10.90
2022-11-20T02:08:08.379Z,11.70
2022-11-20T02:10:38.297Z,11.53
2022-11-20T02:13:25.984Z,10.67
2022-11-20T02:15:56.430Z,11.55
2022-11-20T02:18:26.733Z,10.90
2022-11-20T02:21:17.282Z,11.13
2022-11-20T02:24:08.064Z,10.83
2022-11-20T02:26:40.854Z,10.43
2022-11-20T02:29:10.620Z,11.17
2022-11-20T02:31:42.562Z,11.05
2022-11-20T02:34:12.292Z,11.27
2022-11-20T02:36:44.280Z,11.93
2022-11-20T02:39:16.922Z,11.70
2022-11-20T02:41:47.071Z,11.57
2022-11-20T02:44:16.823Z,11.30
2022-11-20T02:46:46.606Z,11.43
2022-11-20T02:49:18.109Z,11.13
2022-11-20T02:51:47.996Z,11.13
2022-11-20T02:54:17.723Z,11.93
2022-11-20T02:56:47.514Z,11.33
2022-11-20T02:59:17.285Z,12.30
2022-11-20T03:01:47.186Z,10.97
2022-11-20T03:04:17.035Z,11.60
2022-11-20T03:06:46.796Z,11.73
2022-11-20T03:09:16.554Z,11.83
2022-11-20T03:11:46.678Z,12.43
2022-11-20T03:14:16.272Z,11.57
2022-11-20T03:16:46.086Z,11.97
2022-11-20T03:19:16.133Z,11.77
2022-11-20T03:21:46.251Z,12.23
2022-11-20T03:24:16.518Z,12.28
2022-11-20T03:26:46.672Z,12.35
2022-11-20T03:29:16.604Z,13.27
2022-11-20T03:31:46.627Z,12.07
2022-11-20T03:34:16.114Z,13.00
2022-11-20T03:36:46.058Z,12.87
2022-11-20T03:39:15.804Z,12.50
2022-11-20T03:41:45.863Z,12.20
2022-11-20T03:44:15.581Z,12.37
2022-11-20T03:46:45.368Z,12.40
2022-11-20T03:49:15.134Z,12.07
2022-11-20T03:51:44.719Z,11.95
2022-11-20T03:54:14.323Z,11.93
2022-11-20T03:56:44.102Z,11.77
2022-11-20T03:59:13.992Z,12.57
2022-11-20T04:01:49.183Z,11.47
2022-11-20T04:04:15.278Z,12.00
2022-11-20T04:06:45.032Z,11.77
2022-11-20T04:09:16.661Z,12.30
2022-11-20T04:11:46.790Z,11.50
2022-11-20T04:14:17.616Z,11.60
2022-11-20T04:16:47.466Z,11.63
2022-11-20T04:19:18.730Z,11.10
2022-11-20T04:21:48.766Z,12.80
2022-11-20T04:24:18.305Z,12.93
2022-11-20T04:26:48.113Z,12.27
2022-11-20T04:29:17.976Z,13.27
2022-11-20T04:31:47.848Z,12.83
2022-11-20T04:34:17.612Z,12.20
2022-11-20T04:36:47.370Z,11.63
2022-11-20T04:39:17.851Z,12.27
2022-11-20T04:41:47.649Z,11.83
2022-11-20T04:44:17.094Z,11.85
2022-11-20T04:46:46.858Z,11.80
2022-11-20T04:49:16.833Z,11.67
2022-11-20T04:51:46.991Z,12.13
2022-11-20T04:54:17.167Z,10.90
2022-11-20T04:56:48.709Z,12.00
2022-11-20T04:59:19.093Z,10.43
2022-11-20T05:01:49.307Z,12.07
2022-11-20T05:04:19.116Z,11.50
2022-11-20T05:06:49.265Z,10.72
2022-11-20T05:09:19.436Z,12.33
2022-11-20T05:11:51.594Z,12.93
2022-11-20T05:14:20.961Z,11.57
2022-11-20T05:16:51.182Z,11.57
2022-11-20T05:19:21.420Z,11.47
2022-11-20T05:21:51.314Z,11.60
2022-11-20T05:24:21.294Z,11.20
2022-11-20T05:26:51.085Z,11.50
2022-11-20T05:29:21.327Z,10.60
2022-11-20T05:31:51.441Z,10.70
2022-11-20T05:34:21.195Z,12.03
2022-11-20T05:36:51.269Z,11.50
2022-11-20T05:39:21.516Z,12.37
2022-11-20T05:41:53.210Z,13.23
2022-11-20T05:44:22.927Z,13.13
2022-11-20T05:46:52.692Z,13.43
2022-11-20T05:49:23.004Z,13.68
2022-11-20T05:51:53.071Z,13.83
2022-11-20T05:54:22.525Z,12.23
2022-11-20T05:56:52.302Z,13.17
2022-11-20T05:59:22.467Z,11.50
2022-11-20T06:01:52.750Z,12.20
2022-11-20T06:04:22.361Z,12.73
2022-11-20T06:06:52.445Z,11.70
2022-11-20T06:09:22.632Z,11.03
2022-11-20T06:11:52.503Z,11.80
2022-11-20T06:14:22.251Z,12.70
2022-11-20T06:16:51.990Z,12.47
2022-11-20T06:19:22.128Z,12.90
2022-11-20T06:21:52.009Z,12.53
2022-11-20T06:24:21.518Z,12.30
2022-11-20T06:26:51.270Z,12.00
2022-11-20T06:29:21.277Z,12.23
2022-11-20T06:31:51.277Z,11.57
2022-11-20T06:34:21.126Z,12.88
2022-11-20T06:36:50.874Z,12.10
2022-11-20T06:39:20.996Z,11.03
2022-11-20T06:41:55.726Z,12.03
2022-11-20T06:44:22.525Z,12.10
2022-11-20T06:46:52.324Z,13.13
2022-11-20T06:49:22.459Z,12.30
2022-11-20T06:51:52.496Z,12.23
2022-11-20T06:54:21.954Z,10.60
2022-11-20T06:56:52.083Z,11.73
2022-11-20T06:59:22.486Z,12.10
2022-11-20T07:01:52.429Z,12.30
2022-11-20T07:04:21.952Z,12.47
2022-11-20T07:06:51.707Z,12.33
2022-11-20T07:09:21.484Z,13.53
2022-11-20T07:11:51.334Z,12.93
2022-11-20T07:14:21.045Z,13.10
2022-11-20T07:16:50.798Z,12.10
2022-11-20T07:19:21.201Z,12.13
2022-11-20T07:21:51.075Z,12.13
2022-11-20T07:24:20.621Z,13.63
2022-11-20T07:26:53.229Z,12.90
2022-11-20T07:29:23.289Z,12.83
2022-11-20T07:31:53.283Z,13.03
2022-11-20T07:34:23.041Z,12.93
2022-11-20T07:36:52.887Z,12.83
2022-11-20T07:39:23.048Z,12.33
2022-11-20T07:41:53.126Z,12.57
2022-11-20T07:44:23.006Z,12.75
2022-11-20T07:46:52.870Z,13.13
2022-11-20T07:49:23.071Z,13.60
2022-11-20T07:51:56.700Z,13.27
2022-11-20T07:54:26.608Z,13.60
2022-11-20T07:56:56.449Z,14.50
2022-11-20T07:59:26.217Z,14.60
2022-11-20T08:01:56.541Z,15.23
2022-11-20T08:04:26.298Z,15.05
2022-11-20T08:06:56.057Z,14.47
2022-11-20T08:09:25.820Z,14.07
2022-11-20T08:12:13.196Z,13.77
2022-11-20T08:14:42.950Z,15.03
2022-11-20T08:17:13.403Z,15.30
2022-11-20T08:19:43.464Z,15.45
2022-11-20T08:22:12.935Z,16.45
2022-11-20T08:24:42.684Z,15.77
2022-11-20T08:27:12.928Z,16.27
2022-11-20T08:29:42.667Z,17.23
2022-11-20T08:32:12.426Z,16.30
2022-11-20T08:34:42.244Z,16.67
2022-11-20T08:37:12.045Z,17.50
2022-11-20T08:39:42.107Z,18.20
2022-11-20T08:42:12.086Z,16.33
2022-11-20T08:44:41.896Z,18.00
2022-11-20T08:47:11.643Z,20.03
2022-11-20T08:49:41.400Z,28.83
2022-11-20T08:52:12.777Z,18.80
2022-11-20T08:54:42.583Z,17.37
2022-11-20T08:57:12.554Z,17.07
2022-11-20T09:02:14.739Z,18.73
2022-11-20T09:04:44.497Z,17.83
2022-11-20T09:07:14.432Z,18.77
2022-11-20T09:09:44.432Z,18.33
2022-11-20T09:12:15.265Z,19.32
2022-11-20T09:14:45.189Z,19.63
2022-11-20T09:17:15.829Z,18.67
2022-11-20T09:19:46.085Z,18.37
2022-11-20T09:22:16.225Z,17.98
2022-11-20T09:24:46.060Z,19.07
2022-11-20T09:27:15.828Z,18.10
2022-11-20T09:29:45.656Z,17.17
2022-11-20T09:32:15.733Z,19.43
2022-11-20T09:34:45.524Z,19.90
2022-11-20T09:37:15.626Z,18.90
2022-11-20T09:39:45.326Z,20.03
2022-11-20T09:42:34.805Z,19.74
2022-11-20T09:45:25.601Z,19.43
2022-11-20T09:48:33.232Z,18.62
2022-11-20T09:51:28.189Z,19.40
2022-11-20T09:54:09.740Z,21.13
2022-11-20T09:56:44.263Z,21.57
2022-11-20T09:59:34.708Z,19.83
2022-11-20T10:02:06.853Z,20.37
2022-11-20T10:04:40.800Z,20.37
2022-11-20T10:07:38.064Z,20.27
2022-11-20T10:09:56.690Z,21.80
2022-11-20T10:12:56.864Z,20.70
2022-11-20T10:15:45.836Z,18.83
2022-11-20T10:18:43.946Z,19.93
2022-11-20T10:21:27.618Z,20.30
2022-11-20T10:24:18.753Z,20.20
2022-11-20T10:27:07.544Z,21.40
2022-11-20T10:29:40.063Z,20.23
2022-11-20T10:32:15.412Z,20.86
2022-11-20T10:34:56.892Z,21.60
2022-11-20T10:37:31.797Z,22.50
2022-11-20T10:40:04.573Z,21.47
2022-11-20T10:42:46.134Z,21.70
2022-11-20T10:45:32.312Z,21.40
2022-11-20T10:48:10.864Z,22.10
2022-11-20T10:50:43.690Z,21.70
2022-11-20T10:53:39.287Z,21.87
2022-11-20T10:59:11.172Z,22.58
2022-11-20T11:01:44.821Z,20.37
2022-11-20T11:04:22.710Z,21.50
2022-11-20T11:06:55.257Z,22.47
2022-11-20T11:09:28.097Z,20.93
2022-11-20T11:14:29.938Z,22.00
2022-11-20T11:17:00.606Z,21.43
2022-11-20T11:19:30.649Z,20.08
2022-11-20T11:22:01.158Z,19.67
2022-11-20T11:24:42.149Z,20.97
2022-11-20T11:27:10.133Z,20.17
2022-11-20T11:29:39.437Z,20.57
2022-11-20T11:32:23.116Z,20.88
2022-11-20T11:35:07.868Z,20.67
2022-11-20T11:37:39.726Z,22.45
2022-11-20T11:40:23.996Z,20.48
2022-11-20T11:42:55.659Z,21.57
2022-11-20T11:45:26.426Z,21.17
2022-11-20T11:47:59.312Z,20.70
2022-11-20T11:50:30.553Z,20.82
2022-11-20T11:53:09.398Z,22.07
2022-11-20T11:55:47.849Z,24.37
2022-11-20T11:58:22.898Z,23.87
2022-11-20T12:01:01.354Z,22.73
2022-11-20T12:03:36.986Z,23.93
2022-11-20T12:06:09.482Z,23.50
2022-11-20T12:08:45.009Z,24.05
2022-11-20T12:11:20.211Z,24.87
2022-11-20T12:14:03.464Z,23.18
2022-11-20T12:16:38.751Z,25.33
2022-11-20T12:19:13.864Z,25.50
2022-11-20T12:22:03.398Z,24.80
2022-11-20T12:24:46.546Z,25.05
2022-11-20T12:27:21.875Z,25.87
2022-11-20T12:30:06.666Z,27.00
2022-11-20T12:32:39.736Z,24.72
2022-11-20T12:35:24.043Z,26.60
2022-11-20T12:38:24.896Z,26.17
2022-11-20T12:41:09.600Z,27.23
2022-11-20T12:44:12.275Z,25.30
2022-11-20T12:46:51.399Z,26.85
2022-11-20T12:49:26.870Z,26.73
2022-11-20T12:52:27.283Z,27.23
2022-11-20T12:55:12.261Z,26.40
2022-11-20T12:57:50.860Z,24.60
2022-11-20T13:00:25.655Z,26.45
2022-11-20T13:03:17.950Z,25.90
2022-11-20T13:05:59.147Z,24.60
2022-11-20T13:11:45.561Z,23.52
2022-11-20T13:14:43.947Z,25.00
2022-11-20T13:17:33.281Z,24.83
2022-11-20T13:20:05.782Z,24.75
2022-11-20T13:22:53.161Z,26.68
2022-11-20T13:25:30.755Z,24.70
2022-11-20T13:28:12.600Z,26.67
2022-11-20T13:30:54.040Z,23.93
2022-11-20T13:33:35.325Z,24.63
2022-11-20T13:36:10.898Z,24.67
2022-11-20T13:38:46.228Z,25.67
2022-11-20T13:41:32.036Z,24.23
2022-11-20T13:44:10.448Z,24.00
2022-11-20T13:46:48.505Z,26.10
2022-11-20T13:49:38.944Z,23.93
2022-11-20T13:52:35.821Z,24.90
2022-11-20T13:55:30.672Z,24.05
2022-11-20T13:58:15.395Z,24.85
2022-11-20T14:00:48.246Z,23.13
2022-11-20T14:06:03.784Z,24.27
2022-11-20T14:08:41.915Z,25.40
2022-11-20T14:11:26.337Z,26.37
2022-11-20T14:14:01.780Z,25.10
2022-11-20T14:16:34.075Z,25.60
2022-11-20T14:19:22.875Z,26.40
2022-11-20T14:21:55.402Z,23.97
2022-11-20T14:24:28.020Z,28.87
2022-11-20T14:26:57.821Z,27.27
2022-11-20T14:29:33.819Z,26.40
2022-11-20T14:32:04.822Z,30.72
2022-11-20T14:34:37.537Z,32.90
2022-11-20T14:37:16.376Z,28.73
2022-11-20T14:39:51.270Z,30.00
2022-11-20T14:42:23.787Z,27.93
2022-11-20T14:44:56.809Z,29.50
2022-11-20T14:47:32.353Z,28.20
2022-11-20T14:50:08.828Z,30.70
2022-11-20T14:52:35.387Z,29.12
2022-11-20T14:55:06.837Z,28.60
2022-11-20T14:57:38.229Z,31.60
2022-11-20T15:00:14.418Z,28.60
2022-11-20T15:02:46.641Z,29.12
2022-11-20T15:05:17.148Z,31.42
2022-11-20T15:07:50.090Z,29.40
2022-11-20T15:10:29.922Z,29.13
2022-11-20T15:13:12.752Z,27.70
2022-11-20T15:15:49.390Z,31.50
2022-11-20T15:18:22.258Z,30.17
2022-11-20T15:20:53.527Z,33.10
2022-11-20T15:23:23.840Z,30.52
2022-11-20T15:25:53.610Z,30.77
2022-11-20T15:28:48.341Z,29.85
2022-11-20T15:31:20.405Z,29.02
2022-11-20T15:33:50.884Z,28.97
2022-11-20T15:36:20.596Z,29.97
2022-11-20T15:38:50.993Z,28.83
2022-11-20T15:41:20.746Z,30.23
2022-11-20T15:43:50.858Z,30.10
2022-11-20T15:46:23.354Z,30.57
2022-11-20T15:49:00.974Z,30.20
2022-11-20T15:51:33.640Z,28.83
2022-11-20T15:54:05.347Z,27.97
2022-11-20T15:56:35.100Z,28.63
2022-11-20T15:59:05.279Z,32.42
2022-11-20T16:01:35.197Z,30.17
2022-11-20T16:04:06.818Z,28.85
2022-11-20T16:06:36.664Z,29.57
2022-11-20T16:09:06.802Z,28.40
2022-11-20T16:11:40.132Z,30.35
2022-11-20T16:14:30.227Z,30.68
2022-11-20T16:16:59.989Z,28.93
2022-11-20T16:19:30.008Z,30.75
2022-11-20T16:22:03.421Z,28.37
2022-11-20T16:24:33.890Z,26.80
2022-11-20T16:27:03.887Z,26.57
2022-11-20T16:29:33.919Z,25.48
2022-11-20T16:32:03.687Z,26.13
2022-11-20T16:34:33.723Z,25.92
2022-11-20T16:37:03.504Z,24.97
2022-11-20T16:39:33.510Z,24.40
2022-11-20T16:42:05.466Z,24.90
2022-11-20T16:44:35.709Z,24.92
2022-11-20T16:47:05.961Z,24.27
2022-11-20T16:49:36.028Z,27.15
2022-11-20T16:52:05.887Z,25.90
2022-11-20T16:54:35.973Z,29.02
2022-11-20T16:57:05.706Z,30.47
2022-11-20T16:59:35.749Z,27.07
2022-11-20T17:02:05.578Z,27.40
2022-11-20T17:04:41.708Z,38.00
2022-11-20T17:07:09.078Z,35.63
2022-11-20T17:09:39.543Z,35.50
2022-11-20T17:12:09.311Z,50.83
2022-11-20T17:14:39.339Z,30.60
2022-11-20T17:17:09.101Z,33.30
2022-11-20T17:19:39.151Z,27.07
2022-11-20T17:22:09.270Z,28.38
2022-11-20T17:24:39.364Z,25.55
2022-11-20T17:27:09.134Z,27.03
2022-11-20T17:29:42.088Z,24.87
2022-11-20T17:32:13.565Z,25.90
2022-11-20T17:34:43.325Z,26.40
2022-11-20T17:37:13.170Z,26.10
2022-11-20T17:39:44.694Z,27.27
2022-11-20T17:42:29.253Z,27.82
2022-11-20T17:44:58.865Z,28.00
2022-11-20T17:47:28.646Z,26.77
2022-11-20T17:49:58.386Z,25.17
2022-11-20T17:52:28.131Z,24.00
2022-11-20T17:54:57.878Z,28.20
2022-11-20T17:57:44.781Z,24.65
2022-11-20T18:00:17.682Z,26.86
2022-11-20T18:02:47.679Z,25.93
2022-11-20T18:05:17.818Z,24.15
2022-11-20T18:07:47.914Z,24.32
2022-11-20T18:10:19.745Z,24.50
2022-11-20T18:12:49.498Z,24.40
2022-11-20T18:15:19.366Z,24.70
2022-11-20T18:17:49.630Z,25.07
2022-11-20T18:20:30.321Z,24.54
2022-11-20T18:22:51.682Z,24.43
2022-11-20T18:25:21.410Z,24.33
2022-11-20T18:27:51.244Z,22.60
2022-11-20T18:30:21.149Z,25.24
2022-11-20T18:32:50.969Z,23.83
2022-11-20T18:35:20.533Z,24.57
2022-11-20T18:37:50.333Z,24.70
2022-11-20T18:40:20.162Z,25.68
2022-11-20T18:43:07.718Z,24.57
2022-11-20T18:45:37.444Z,26.03
2022-11-20T18:48:07.302Z,26.77
2022-11-20T18:50:37.157Z,26.97
2022-11-20T18:53:06.908Z,25.67
2022-11-20T18:55:37.392Z,26.37
2022-11-20T18:58:07.132Z,25.57
2022-11-20T19:00:36.890Z,26.10
2022-11-20T19:03:06.624Z,26.23
2022-11-20T19:05:38.408Z,25.53
2022-11-20T19:08:08.530Z,27.35
2022-11-20T19:10:38.284Z,26.73
2022-11-20T19:13:08.036Z,26.77
2022-11-20T19:15:38.249Z,26.87
2022-11-20T19:18:08.531Z,30.00
2022-11-20T19:20:38.463Z,30.63
2022-11-20T19:23:08.417Z,30.97
2022-11-20T19:25:38.580Z,32.88
2022-11-20T19:28:08.706Z,31.37
2022-11-20T19:30:40.406Z,33.18
2022-11-20T19:33:10.233Z,31.53
2022-11-20T19:35:39.974Z,32.33
2022-11-20T19:38:10.923Z,31.48
2022-11-20T19:40:40.722Z,30.37
2022-11-20T19:43:10.461Z,31.27
2022-11-20T19:45:40.270Z,30.37
2022-11-20T19:48:11.227Z,31.10
2022-11-20T19:50:40.699Z,30.00
2022-11-20T19:53:11.478Z,31.00
2022-11-20T19:55:43.073Z,29.20
2022-11-20T19:58:14.192Z,29.46
2022-11-20T20:00:43.903Z,30.17
2022-11-20T20:03:13.964Z,29.12
2022-11-20T20:05:44.182Z,29.42
2022-11-20T20:08:17.033Z,29.05
2022-11-20T20:10:46.682Z,30.20
2022-11-20T20:13:16.433Z,31.50
2022-11-20T20:15:46.547Z,29.32
2022-11-20T20:18:16.599Z,27.80
2022-11-20T20:20:46.381Z,30.40
2022-11-20T20:23:16.154Z,29.10
2022-11-20T20:25:49.100Z,30.20
2022-11-20T20:28:18.668Z,30.10
2022-11-20T20:30:48.393Z,31.63
2022-11-20T20:33:18.152Z,30.23
2022-11-20T20:35:48.127Z,31.97
2022-11-20T20:38:18.198Z,30.40
2022-11-20T20:40:49.595Z,30.47
2022-11-20T20:43:19.335Z,29.23
2022-11-20T20:45:49.685Z,30.03
2022-11-20T20:48:21.383Z,30.57
2022-11-20T20:51:02.933Z,30.23
2022-11-20T20:53:32.694Z,29.47
2022-11-20T20:56:03.877Z,30.50
2022-11-20T20:58:33.324Z,29.23
2022-11-20T21:01:05.400Z,29.42
2022-11-20T21:03:35.990Z,29.90
2022-11-20T21:06:08.331Z,30.43
2022-11-20T21:08:40.735Z,29.70
2022-11-20T21:11:19.578Z,29.87
2022-11-20T21:13:50.118Z,30.67
2022-11-20T21:16:22.376Z,29.40
2022-11-20T21:18:52.121Z,31.10
2022-11-20T21:21:39.314Z,31.87
2022-11-20T21:24:10.220Z,30.75
2022-11-20T21:26:42.282Z,30.20
2022-11-20T21:29:12.235Z,29.57
2022-11-20T21:31:42.256Z,29.80
2022-11-20T21:34:16.043Z,28.14
2022-11-20T21:36:46.423Z,30.25
2022-11-20T21:39:17.428Z,28.90
2022-11-20T21:41:47.212Z,29.77
2022-11-20T21:44:30.893Z,29.15
2022-11-20T21:46:49.195Z,28.42
2022-11-20T21:49:18.937Z,27.33
2022-11-20T21:51:48.684Z,28.37
2022-11-20T21:54:18.465Z,28.02
2022-11-20T21:56:48.225Z,28.03
2022-11-20T21:59:20.639Z,27.13
2022-11-20T22:01:50.505Z,26.27
2022-11-20T22:04:21.392Z,29.80
2022-11-20T22:06:51.597Z,28.27
2022-11-20T22:09:21.344Z,27.57
2022-11-20T22:11:51.101Z,28.37
2022-11-20T22:14:20.954Z,28.93
2022-11-20T22:16:52.837Z,28.10
2022-11-20T22:19:23.518Z,27.70
2022-11-20T22:21:53.557Z,26.50
2022-11-20T22:24:24.320Z,28.70
2022-11-20T22:26:54.184Z,27.30
2022-11-20T22:29:24.229Z,28.17
2022-11-20T22:31:53.973Z,27.43
2022-11-20T22:34:23.869Z,27.30
2022-11-20T22:36:53.764Z,29.20
2022-11-20T22:39:26.210Z,28.23
2022-11-20T22:41:56.258Z,27.02
2022-11-20T22:44:26.047Z,26.97
2022-11-20T22:46:56.035Z,28.17
2022-11-20T22:49:26.113Z,29.35
2022-11-20T22:51:55.876Z,28.50
2022-11-20T22:54:25.589Z,28.90
2022-11-20T22:56:55.500Z,29.83
2022-11-20T22:59:25.249Z,29.43
2022-11-20T23:01:54.987Z,29.67
2022-11-20T23:04:25.204Z,30.23
2022-11-20T23:06:54.860Z,30.60
2022-11-20T23:09:24.617Z,30.67
2022-11-20T23:11:54.419Z,30.03
2022-11-20T23:14:27.675Z,31.07
2022-11-20T23:16:55.825Z,29.53
2022-11-20T23:19:25.729Z,30.63
2022-11-20T23:21:55.219Z,30.50
2022-11-20T23:24:25.189Z,30.70
2022-11-20T23:26:55.132Z,28.17
2022-11-20T23:29:25.022Z,29.73
2022-11-20T23:31:55.236Z,31.60
2022-11-20T23:34:25.124Z,29.13
2022-11-20T23:36:55.266Z,30.15
2022-11-20T23:39:25.330Z,30.08
2022-11-20T23:41:55.062Z,32.27
2022-11-20T23:44:25.528Z,30.23
2022-11-20T23:46:55.686Z,30.90
2022-11-20T23:49:25.417Z,31.87
2022-11-20T23:51:55.184Z,30.37
2022-11-20T23:54:25.051Z,30.67
2022-11-20T23:56:55.133Z,31.47
2022-11-20T23:59:25.628Z,31.87
